Current | Forecast
Updated: 9:00 AM JST on April 22, 2018
Observed at Tokyo Heliport, Japan
Temperature 68°F
Humidity 78%
Dew Point 61°F
Wind SSE at 6 mph
Pressure 30.09 in (Steady)
Conditions Clear
Visibility -
UV N/A
Clouds
Yesterday's Maximum 70°F
Yesterday's Minimum 64°F approx.
Yesterday's Cooling Degree Days 2 approx.
Sunrise4:59 AM JST
Sunset6:18 PM JST
Moon Rise10:07 AM JST
Moon Set
Moon PhaseMoon Phase
Waxing Crescent
Raw METARMETAR RJTI 220000Z 16005KT 140V200 CAVOK 20/16 Q1019


Monday
. High: 75° F.
Tuesday
. High: 75° F.
Wednesday
. High: 64° F.
Thursday
. High: 71° F.
Friday
. High: 73° F.
Saturday
. High: 71° F.
Sunday
. High: 73° F.
Monday
. High: 71° F.

Units: English | Metric

Find the Weather for any City, State or Zipcode, or Country:

U.S. State List | Severe Weather | Tropical Storms | Ski Conditions
United States | Canada | Central America | South America | Asia | Europe | Australia | Africa | Islands

Weather Underground

© Copyright 2018
The Weather Company, LLC